Estación Meteorológica Peña el Pijo (Robertgarden) [ 01/30/23 14:43:38 CET ]

Fecha Hora Presion(HPa) Temp (°C) Humedad % Rocio (°C) Viento ( m/s) Direccion Lluvia 1Hora(mm) Lluvia 24H(mm) LLuvia Total(mm)
2012-Nov-18 01:01:14 999.500 3.9 93 2.9         178.19
2012-Nov-18 02:05:22 999.000 4.1 93 3.0         178.19
2012-Nov-18 03:01:13 999.100 4.5 94 3.6         178.19
2012-Nov-18 04:01:13 998.700 4.9 94 4.0         178.19
2012-Nov-18 05:01:13 998.800 5.2 94 4.3         178.19
2012-Nov-18 06:01:17 998.900 4.9 94 4.0         178.19
2012-Nov-18 07:01:14 999.000 3.6 94 2.7         178.19
2012-Nov-18 08:01:14 999.700 2.8 94 1.9         178.19
2012-Nov-18 09:01:17 1000.300 4.1 95 3.4         178.19
2012-Nov-18 10:01:14 1000.900 7.4 94 6.5         178.19
2012-Nov-18 11:01:14 1001.300 8.3 93 7.2         178.19
2012-Nov-18 12:01:14 1001.300 9.6 90 8.0         178.19
2012-Nov-18 13:01:11 1000.500 12.8 80 9.4         178.19
2012-Nov-18 14:01:13 1000.400 13.6 72 8.6         178.19
2012-Nov-18 15:01:17 1000.700 11.3 81 8.2         178.19
2012-Nov-18 16:01:15 1000.800 11.7 81 8.6         178.19
2012-Nov-18 17:01:16 1001.300 11.2 79 7.7         178.19
2012-Nov-18 18:01:14 1002.100 10.4 82 7.4         178.19
2012-Nov-18 19:01:13 1003.100 9.3 86 7.1         178.19
2012-Nov-18 20:01:13 1003.700 8.1 87 6.1         178.19
2012-Nov-18 21:01:13 1004.300 7.4 89 5.7         178.19
2012-Nov-18 22:01:14 1004.600 6.8 90 5.3         178.19
2012-Nov-18 23:01:14 1005.200 6.1 91 4.8         178.19

Temperatura Máxima:13°    Temperatura Mínima:
Presión Máxima:1005.200 Hpa    Presión Mínima:998.700 Hpa


Volver